createdAt,value
2023-01-18T05:36:09.724Z,24.90
2023-01-18T05:38:38.454Z,19.60
2023-01-18T05:41:07.435Z,18.30
2023-01-18T05:43:36.451Z,20.80
2023-01-18T05:46:05.576Z,20.40
2023-01-18T05:48:34.838Z,19.80
2023-01-18T05:51:11.710Z,20.80
2023-01-18T05:53:41.106Z,21.40
2023-01-18T05:56:10.163Z,20.80
2023-01-18T05:58:39.254Z,17.20
2023-01-18T06:01:08.982Z,15.40
2023-01-18T06:03:37.885Z,17.30
2023-01-18T06:06:07.468Z,17.00
2023-01-18T06:08:36.321Z,22.20
2023-01-18T06:11:06.700Z,17.30
2023-01-18T06:13:35.487Z,14.20
2023-01-18T06:16:05.377Z,16.30
2023-01-18T06:18:34.536Z,16.10
2023-01-18T06:21:04.232Z,15.70
2023-01-18T06:23:33.302Z,17.10
2023-01-18T06:26:02.117Z,18.30
2023-01-18T06:28:31.390Z,19.00
2023-01-18T06:31:00.889Z,15.80
2023-01-18T06:33:29.775Z,21.80
2023-01-18T06:35:58.670Z,18.80
2023-01-18T06:38:27.961Z,21.80
2023-01-18T06:40:56.768Z,19.50
2023-01-18T06:43:25.667Z,17.30
2023-01-18T06:45:57.990Z,19.20
2023-01-18T06:48:27.629Z,17.00
2023-01-18T06:50:58.840Z,19.50
2023-01-18T06:53:27.774Z,19.70
2023-01-18T06:56:02.228Z,21.40
2023-01-18T06:58:33.159Z,22.60
2023-01-18T07:01:02.698Z,20.40
2023-01-18T07:03:32.825Z,16.50
2023-01-18T07:12:21.770Z,14.90
2023-01-18T07:14:50.528Z,13.50
2023-01-18T07:17:19.296Z,17.20
2023-01-18T07:19:48.058Z,13.40
2023-01-18T07:22:16.862Z,13.70
2023-01-18T07:24:46.737Z,13.60
2023-01-18T07:27:15.773Z,14.50
2023-01-18T07:29:44.664Z,16.30
2023-01-18T07:32:13.437Z,11.00
2023-01-18T07:34:42.247Z,13.40
2023-01-18T07:37:11.030Z,11.10
2023-01-18T07:39:39.890Z,11.40
2023-01-18T07:42:09.323Z,12.50
2023-01-18T07:44:38.796Z,14.10
2023-01-18T07:47:08.146Z,14.90
2023-01-18T07:49:36.981Z,10.90
2023-01-18T07:52:05.974Z,17.40
2023-01-18T07:54:34.771Z,15.40
2023-01-18T07:57:03.716Z,15.40
2023-01-18T07:59:33.764Z,10.70
2023-01-18T08:02:03.463Z,16.80
2023-01-18T08:04:32.239Z,14.80
2023-01-18T08:07:01.003Z,12.30
2023-01-18T08:09:29.930Z,17.30
2023-01-18T08:11:58.636Z,16.00
2023-01-18T08:14:27.733Z,17.30
2023-01-18T08:16:56.532Z,13.30
2023-01-18T08:19:25.372Z,16.90
2023-01-18T08:21:54.225Z,20.80
2023-01-18T08:24:22.975Z,13.50
2023-01-18T08:26:51.728Z,18.10
2023-01-18T08:29:20.454Z,14.40
2023-01-18T08:31:54.515Z,13.10
2023-01-18T08:34:23.691Z,11.60
2023-01-18T08:36:52.611Z,17.90
2023-01-18T08:39:21.362Z,13.00
2023-01-18T08:41:50.166Z,9.90
2023-01-18T08:44:19.468Z,9.00
2023-01-18T08:46:48.421Z,9.30
2023-01-18T08:49:17.315Z,12.00
2023-01-18T08:51:46.195Z,10.40
2023-01-18T08:54:15.022Z,11.60
2023-01-18T08:56:43.918Z,8.50
2023-01-18T08:59:12.870Z,12.90
2023-01-18T09:01:41.672Z,9.00
2023-01-18T09:04:10.522Z,10.80
2023-01-18T09:06:39.315Z,12.30
2023-01-18T09:09:08.205Z,11.90
2023-01-18T09:11:37.044Z,14.30
2023-01-18T09:14:05.930Z,12.10
2023-01-18T09:16:34.855Z,11.20
2023-01-18T09:19:06.647Z,10.10
2023-01-18T09:21:35.643Z,12.40
2023-01-18T09:24:05.239Z,11.60
2023-01-18T09:26:33.965Z,8.70
2023-01-18T09:29:02.875Z,7.90
2023-01-18T09:31:31.816Z,11.20
2023-01-18T09:34:17.977Z,11.30
2023-01-18T09:36:51.760Z,8.00
2023-01-18T09:39:22.698Z,7.30
2023-01-18T09:41:56.756Z,9.50
2023-01-18T09:44:36.391Z,12.10
2023-01-18T09:47:15.569Z,9.10
2023-01-18T09:49:59.405Z,7.30
2023-01-18T09:52:59.444Z,8.00
2023-01-18T09:55:42.697Z,8.70
2023-01-18T09:58:49.079Z,9.90
2023-01-18T10:01:22.858Z,9.30
2023-01-18T10:04:21.696Z,13.70
2023-01-18T10:06:59.511Z,8.30
2023-01-18T10:09:29.944Z,12.90
2023-01-18T10:12:17.639Z,8.00
2023-01-18T10:15:00.645Z,9.80
2023-01-18T10:17:43.271Z,14.30
2023-01-18T10:20:37.573Z,8.20
2023-01-18T10:23:35.242Z,11.30
2023-01-18T10:26:13.160Z,7.60
2023-01-18T10:29:01.536Z,7.90
2023-01-18T10:32:18.052Z,9.70
2023-01-18T10:34:51.732Z,13.60
2023-01-18T10:37:46.965Z,16.00
2023-01-18T10:40:15.848Z,10.90
2023-01-18T10:43:00.681Z,13.40
2023-01-18T10:45:34.207Z,7.20
2023-01-18T10:48:18.255Z,11.10
2023-01-18T10:50:54.002Z,10.90
2023-01-18T10:53:36.419Z,11.70
2023-01-18T10:56:17.820Z,13.80
2023-01-18T10:59:01.345Z,11.80
2023-01-18T11:01:53.325Z,11.10
2023-01-18T11:04:30.051Z,9.70
2023-01-18T11:07:05.159Z,10.50
2023-01-18T11:09:48.963Z,11.40
2023-01-18T11:12:38.698Z,12.30
2023-01-18T11:15:16.694Z,13.70
2023-01-18T11:17:54.920Z,8.30
2023-01-18T11:20:50.232Z,8.60
2023-01-18T11:23:25.599Z,12.30
2023-01-18T11:26:14.986Z,8.20
2023-01-18T11:29:02.973Z,12.60
2023-01-18T11:31:46.002Z,10.00
2023-01-18T11:37:24.921Z,10.00
2023-01-18T11:39:53.732Z,9.20
2023-01-18T11:42:31.849Z,11.50
2023-01-18T11:45:16.351Z,9.80
2023-01-18T11:48:07.217Z,11.30
2023-01-18T11:51:00.481Z,9.70
2023-01-18T11:54:03.051Z,10.70
2023-01-18T11:57:04.911Z,8.70
2023-01-18T11:59:43.115Z,13.50
2023-01-18T12:02:56.463Z,13.40
2023-01-18T12:05:47.510Z,11.50
2023-01-18T12:09:06.730Z,12.20
2023-01-18T12:12:18.143Z,9.80
2023-01-18T12:15:21.066Z,15.90
2023-01-18T12:18:30.901Z,12.30
2023-01-18T12:21:13.513Z,9.60
2023-01-18T12:24:00.828Z,13.50
2023-01-18T12:27:18.369Z,7.10
2023-01-18T12:30:12.317Z,10.00
2023-01-18T12:32:50.378Z,9.30
2023-01-18T12:35:52.689Z,12.20
2023-01-18T12:38:27.999Z,12.70
2023-01-18T12:41:21.775Z,10.90
2023-01-18T12:44:17.792Z,10.40
2023-01-18T12:47:12.570Z,9.00
2023-01-18T12:49:51.731Z,15.40
2023-01-18T12:52:23.808Z,13.70
2023-01-18T12:55:04.209Z,10.00
2023-01-18T12:57:35.359Z,11.10
2023-01-18T13:00:27.846Z,13.20
2023-01-18T13:02:57.871Z,13.90
2023-01-18T13:06:02.377Z,13.10
2023-01-18T13:08:59.959Z,11.20
2023-01-18T13:11:38.723Z,12.20
2023-01-18T13:14:37.399Z,10.30
2023-01-18T13:17:33.680Z,11.30
2023-01-18T13:20:11.778Z,12.40
2023-01-18T13:23:15.570Z,12.40
2023-01-18T13:26:06.776Z,9.40
2023-01-18T13:28:37.215Z,12.70
2023-01-18T13:31:06.657Z,11.70
2023-01-18T13:33:42.384Z,13.60
2023-01-18T13:36:15.778Z,16.10
2023-01-18T13:39:03.931Z,12.50
2023-01-18T13:41:32.857Z,15.10
2023-01-18T13:44:32.719Z,12.80
2023-01-18T13:47:01.503Z,15.70
2023-01-18T13:49:45.418Z,15.70
2023-01-18T13:52:35.865Z,17.40
2023-01-18T13:55:26.365Z,18.40
2023-01-18T13:57:56.521Z,13.80
2023-01-18T14:00:26.890Z,8.80
2023-01-18T14:03:16.192Z,12.60
2023-01-18T14:05:48.884Z,11.70
2023-01-18T14:08:34.497Z,13.80
2023-01-18T14:11:11.894Z,12.80
2023-01-18T14:13:47.856Z,12.20
2023-01-18T14:16:26.477Z,14.40
2023-01-18T14:19:17.785Z,15.20
2023-01-18T14:21:58.506Z,11.30
2023-01-18T14:25:21.284Z,16.30
2023-01-18T14:28:11.244Z,14.00
2023-01-18T14:30:43.818Z,17.70
2023-01-18T14:33:27.410Z,14.00
2023-01-18T14:35:59.203Z,16.90
2023-01-18T14:38:29.823Z,23.30
2023-01-18T14:41:08.519Z,12.70
2023-01-18T14:43:44.422Z,19.30
2023-01-18T14:46:24.412Z,15.90
2023-01-18T14:48:58.955Z,15.00
2023-01-18T14:51:30.151Z,13.50
2023-01-18T14:54:02.330Z,8.90
2023-01-18T14:56:40.449Z,10.40
2023-01-18T14:59:31.743Z,16.80
2023-01-18T15:02:16.605Z,14.60
2023-01-18T15:04:47.656Z,13.40
2023-01-18T15:07:31.064Z,11.00
2023-01-18T15:10:00.680Z,11.40
2023-01-18T15:12:32.913Z,12.80
2023-01-18T15:15:17.890Z,12.90
2023-01-18T15:17:46.696Z,9.50
2023-01-18T15:20:16.031Z,16.20
2023-01-18T15:22:44.964Z,18.00
2023-01-18T15:25:34.939Z,17.00
2023-01-18T15:28:22.437Z,11.40
2023-01-18T15:30:54.222Z,11.20
2023-01-18T15:33:26.250Z,16.20
2023-01-18T15:36:01.318Z,11.20
2023-01-18T15:38:30.836Z,12.50
2023-01-18T15:41:11.460Z,14.50
2023-01-18T15:43:46.476Z,14.40
2023-01-18T15:46:17.498Z,14.20
2023-01-18T15:48:57.089Z,13.80
2023-01-18T15:51:44.833Z,16.90
2023-01-18T15:54:23.225Z,13.30
2023-01-18T15:56:53.192Z,12.50
2023-01-18T15:59:27.311Z,14.10
2023-01-18T16:02:25.866Z,13.70
2023-01-18T16:05:27.191Z,15.10
2023-01-18T16:08:20.970Z,14.30
2023-01-18T16:10:54.602Z,15.50
2023-01-18T16:13:34.748Z,17.00
2023-01-18T16:16:23.517Z,16.60
2023-01-18T16:19:29.357Z,15.00
2023-01-18T16:22:18.886Z,15.60
2023-01-18T16:24:53.592Z,16.10
2023-01-18T16:27:26.490Z,18.90
2023-01-18T16:29:58.772Z,17.70
2023-01-18T16:32:30.264Z,24.30
2023-01-18T16:35:09.985Z,18.40
2023-01-18T16:37:46.817Z,19.00
2023-01-18T16:40:20.761Z,18.70
2023-01-18T16:43:21.990Z,22.90
2023-01-18T16:45:53.671Z,25.00
2023-01-18T16:48:27.885Z,14.90
2023-01-18T16:50:59.669Z,28.60
2023-01-18T16:53:32.007Z,26.00
2023-01-18T16:56:01.584Z,22.10
2023-01-18T16:58:35.515Z,33.60
2023-01-18T17:01:16.752Z,25.50
2023-01-18T17:03:45.790Z,32.20
2023-01-18T17:06:20.901Z,27.10
2023-01-18T17:08:49.910Z,32.40
2023-01-18T17:11:18.666Z,28.00
2023-01-18T17:13:47.990Z,20.30
2023-01-18T17:16:19.765Z,20.40
2023-01-18T17:18:50.008Z,29.10
2023-01-18T17:21:20.371Z,18.40
2023-01-18T17:23:49.147Z,19.50
2023-01-18T17:26:17.976Z,20.90
2023-01-18T17:28:48.734Z,18.70
2023-01-18T17:31:17.761Z,18.60
2023-01-18T17:33:46.593Z,18.20
2023-01-18T17:36:15.521Z,17.50
2023-01-18T17:38:45.432Z,18.10
2023-01-18T17:41:27.080Z,16.10
2023-01-18T17:43:57.432Z,17.90
2023-01-18T17:46:26.270Z,21.10
2023-01-18T17:48:55.230Z,17.90
2023-01-18T17:51:24.031Z,17.60
2023-01-18T17:53:53.029Z,20.30
2023-01-18T17:56:21.822Z,17.90
2023-01-18T17:58:50.994Z,19.70
2023-01-18T18:01:20.130Z,17.80
2023-01-18T18:04:05.510Z,18.30
2023-01-18T18:06:43.142Z,16.70
2023-01-18T18:09:15.100Z,20.00
2023-01-18T18:11:43.883Z,16.20
2023-01-18T18:14:12.878Z,18.20
2023-01-18T18:16:43.792Z,19.30
2023-01-18T18:19:15.000Z,18.30
2023-01-18T18:21:44.013Z,20.70
2023-01-18T18:24:13.559Z,15.90
2023-01-18T18:26:43.358Z,17.60
2023-01-18T18:29:12.166Z,16.40
2023-01-18T18:31:42.576Z,20.20
2023-01-18T18:34:12.986Z,24.50
2023-01-18T18:36:41.838Z,22.50
2023-01-18T18:39:10.724Z,22.80
2023-01-18T18:41:40.012Z,21.90
2023-01-18T18:44:09.376Z,17.60
2023-01-18T18:46:38.743Z,20.50
2023-01-18T18:49:08.636Z,23.30
2023-01-18T18:51:37.532Z,16.40
2023-01-18T18:54:06.651Z,16.70
2023-01-18T18:56:36.560Z,20.20
2023-01-18T18:59:06.301Z,21.90
2023-01-18T19:01:36.167Z,20.30
2023-01-18T19:04:06.088Z,17.40
2023-01-18T19:06:35.650Z,16.30
2023-01-18T19:09:05.765Z,19.30
2023-01-18T19:11:34.793Z,22.00
2023-01-18T19:14:05.260Z,18.70
2023-01-18T19:16:34.497Z,19.70
2023-01-18T19:19:03.943Z,17.60
2023-01-18T19:21:33.209Z,22.60
2023-01-18T19:24:02.028Z,19.50
2023-01-18T19:26:31.048Z,18.50
2023-01-18T19:28:59.763Z,21.10
2023-01-18T19:31:28.699Z,20.70
2023-01-18T19:33:59.054Z,19.80
2023-01-18T19:36:28.338Z,20.00
2023-01-18T19:39:00.202Z,18.00
2023-01-18T19:41:30.580Z,15.90
2023-01-18T19:43:59.319Z,14.70
2023-01-18T19:46:29.451Z,14.50
2023-01-18T19:49:00.534Z,17.50
2023-01-18T19:51:30.274Z,15.90
2023-01-18T19:53:59.228Z,19.40
2023-01-18T19:56:29.357Z,18.60
2023-01-18T19:58:58.343Z,31.80
2023-01-18T20:01:36.312Z,38.60
2023-01-18T20:04:06.917Z,31.90
2023-01-18T20:06:39.899Z,28.20
2023-01-18T20:09:19.077Z,21.60
2023-01-18T20:11:49.417Z,23.90
2023-01-18T20:14:22.846Z,29.60
2023-01-18T20:16:54.234Z,24.00
2023-01-18T20:19:23.223Z,15.90
2023-01-18T20:21:52.736Z,22.90
2023-01-18T20:24:21.727Z,23.50
2023-01-18T20:26:52.053Z,29.70
2023-01-18T20:29:20.985Z,26.20
2023-01-18T20:31:50.795Z,30.70
2023-01-18T20:34:19.857Z,38.20
2023-01-18T20:36:50.489Z,42.80
2023-01-18T20:39:20.386Z,39.60
2023-01-18T20:41:50.414Z,48.20
2023-01-18T20:44:19.169Z,51.20
2023-01-18T20:46:51.279Z,66.20
2023-01-18T20:49:24.515Z,63.10
2023-01-18T20:51:56.366Z,56.90
2023-01-18T20:54:25.326Z,51.40
2023-01-18T20:56:54.631Z,47.90
2023-01-18T20:59:24.214Z,44.70
2023-01-18T21:01:53.408Z,50.60
2023-01-18T21:04:22.434Z,50.50
2023-01-18T21:06:51.289Z,38.30
2023-01-18T21:09:20.354Z,33.50
2023-01-18T21:11:49.224Z,26.70
2023-01-18T21:14:18.297Z,27.30
2023-01-18T21:16:47.450Z,27.10
2023-01-18T21:19:16.440Z,29.00
2023-01-18T21:21:45.683Z,29.00
2023-01-18T21:24:14.580Z,21.60
2023-01-18T21:26:43.474Z,26.30
2023-01-18T21:29:12.265Z,29.90
2023-01-18T21:31:42.310Z,28.70
2023-01-18T21:34:11.148Z,36.30
2023-01-18T21:36:39.892Z,24.90
2023-01-18T21:39:11.681Z,23.10
2023-01-18T21:41:58.933Z,27.30
2023-01-18T21:44:46.068Z,27.20
2023-01-18T21:47:17.653Z,24.00
2023-01-18T21:50:21.241Z,29.40
2023-01-18T21:53:08.746Z,34.10
2023-01-18T21:55:40.318Z,27.10
2023-01-18T21:58:27.830Z,26.80
2023-01-18T22:01:00.758Z,25.30
2023-01-18T22:03:29.903Z,33.50
2023-01-18T22:06:01.459Z,32.90
2023-01-18T22:08:30.272Z,35.00
2023-01-18T22:11:00.323Z,39.30
2023-01-18T22:13:29.241Z,40.60
2023-01-18T22:16:04.661Z,32.80
2023-01-18T22:18:33.494Z,32.50
2023-01-18T22:21:02.500Z,33.20
2023-01-18T22:23:31.595Z,34.30
2023-01-18T22:26:00.595Z,33.40
2023-01-18T22:28:29.582Z,42.50
2023-01-18T22:30:59.196Z,32.10
2023-01-18T22:33:29.312Z,33.70
2023-01-18T22:36:01.074Z,31.00
2023-01-18T22:38:30.167Z,30.40
2023-01-18T22:41:15.900Z,33.30
2023-01-18T22:43:45.871Z,31.30
2023-01-18T22:46:18.271Z,33.20
2023-01-18T22:48:48.670Z,34.40
2023-01-18T22:51:22.080Z,33.60
2023-01-18T22:53:51.380Z,35.40
2023-01-18T22:56:23.575Z,32.80
2023-01-18T22:58:53.133Z,34.90
2023-01-18T23:01:28.593Z,26.70
2023-01-18T23:04:02.912Z,27.10
2023-01-18T23:06:47.037Z,29.20
2023-01-18T23:09:17.936Z,34.50
2023-01-18T23:11:48.002Z,33.70
2023-01-18T23:14:35.330Z,27.50
2023-01-18T23:17:22.765Z,30.00
2023-01-18T23:19:51.761Z,32.10
2023-01-18T23:22:20.952Z,27.70
2023-01-18T23:24:49.747Z,25.80
2023-01-18T23:27:18.651Z,29.60
2023-01-18T23:29:56.790Z,29.10
2023-01-18T23:32:30.478Z,27.80
2023-01-18T23:35:00.776Z,30.40
2023-01-18T23:37:30.074Z,27.60
2023-01-18T23:40:17.700Z,33.10
2023-01-18T23:43:04.826Z,26.30
2023-01-18T23:45:52.155Z,29.80
2023-01-18T23:48:39.281Z,28.30
2023-01-18T23:51:28.120Z,29.60
2023-01-18T23:54:18.935Z,28.90
2023-01-18T23:56:48.542Z,30.90
2023-01-18T23:59:17.329Z,29.40
